aviador You're here:

GQPP Decoded Metar

NOUADHIBOU in MAURITANIA
Report Time2017-12-16 03:00:00
UTC Time2017-12-16 03:40:57
Flight Rules vfr VFR
Wind020° at 15 kt
W.Decomp.*RWY 02: 14.9 kt HW 1.6 kt RCW
W.Rank020° ranks 8
Current wind is above 020° avg. (13.2)
Visibility8000 m
Phenomena:N/A
Clouds:N/A
Expected CloudBase > 1,200 ft AGL from Temp-Dew spread
CeilingNone
Temp16°C (ISA +1)
Dew Point13°C (83% RH)
AAT11.6°C
QNH1020 hPa
Density Alt95 ft
Elevation10 ft
Report Wrong Elevation
Raw Report
METAR GQPP 160300Z 02015KT 8000 NSC 16/13 Q1020 NOSIG=

Extra information for GQPP:More info

Metar Taf Metar & Taf Last 4 Metars F.Rules Stats Wind Profile Meteogram Temp Stats Airport Information Weather charts Add Link Nearby VenuesMetar ALERT Operation Metar Decoded Social comments